Time;durP1;ratioP1;P1;durP2;ratioP2;P2;SDS_P1;SDS_P2;PMS_P1;PMS_P2;Temp;Humidity;BMP_temperature;BMP_pressure;BME280_temperature;BME280_humidity;BME280_pressure;Samples;Min_cycle;Max_cycle;Signal;HPM_P1;HPM_P2
2023/01/05 00:01:57;;;;;;;8.85;2.20;;;13.70;99.90;;;;;;4964283;28;20204;-72
2023/01/05 00:04:25;;;;;;;3.85;1.52;;;13.70;99.90;;;;;;4987131;28;20195;-72
2023/01/05 00:06:54;;;;;;;7.15;1.90;;;13.70;99.90;;;;;;4979048;28;20175;-73
2023/01/05 00:09:24;;;;;;;8.77;1.70;;;13.70;99.90;;;;;;4979349;28;20215;-72
2023/01/05 00:23:01;;;;;;;8.13;1.83;;;13.70;99.90;;;;;;4985723;28;20177;-73
2023/01/05 00:25:32;;;;;;;8.88;2.17;;;13.70;99.90;;;;;;4994974;28;20194;-73
2023/01/05 00:27:58;;;;;;;6.47;1.95;;;13.70;99.90;;;;;;4975903;28;20207;-72
2023/01/05 00:30:31;;;;;;;6.95;2.03;;;13.70;99.90;;;;;;4980746;28;20266;-72
2023/01/05 00:32:57;;;;;;;7.72;1.90;;;13.70;99.90;;;;;;4975386;28;20180;-72
2023/01/05 00:35:22;;;;;;;7.90;1.90;;;13.70;99.90;;;;;;4978599;28;20210;-71
2023/01/05 00:37:48;;;;;;;5.50;2.30;;;13.70;99.90;;;;;;4985537;28;20167;-71
2023/01/05 00:40:19;;;;;;;7.70;2.38;;;13.70;99.90;;;;;;4979285;28;20199;-72
2023/01/05 00:42:46;;;;;;;8.25;2.15;;;13.70;99.90;;;;;;4978884;28;20172;-72
2023/01/05 00:45:14;;;;;;;7.70;2.08;;;13.70;99.90;;;;;;4978892;28;20257;-72
2023/01/05 00:47:43;;;;;;;6.68;2.10;;;13.70;99.90;;;;;;4978157;28;20204;-71
2023/01/05 00:50:12;;;;;;;9.23;2.13;;;13.70;99.90;;;;;;4965436;28;20180;-72
2023/01/05 00:52:40;;;;;;;11.80;2.28;;;13.70;99.90;;;;;;4975980;28;20247;-72
2023/01/05 00:55:06;;;;;;;8.90;2.20;;;13.70;99.90;;;;;;4990344;28;20198;-72
2023/01/05 00:57:31;;;;;;;8.88;1.85;;;13.70;99.90;;;;;;4978122;28;20279;-72
2023/01/05 00:59:57;;;;;;;12.00;2.13;;;13.70;99.90;;;;;;4980009;28;20307;-71
2023/01/05 01:02:25;;;;;;;10.88;2.20;;;13.70;99.90;;;;;;4991484;28;20175;-73
2023/01/05 01:04:53;;;;;;;7.60;2.20;;;13.80;99.90;;;;;;4977606;28;20321;-71
2023/01/05 01:07:18;;;;;;;10.20;2.22;;;13.70;99.90;;;;;;4979373;28;20218;-72
2023/01/05 01:09:44;;;;;;;8.15;2.20;;;13.70;99.90;;;;;;4959974;28;20196;-71
2023/01/05 01:12:10;;;;;;;8.93;2.20;;;13.70;99.90;;;;;;4976677;28;20272;-72
2023/01/05 01:14:38;;;;;;;11.20;2.28;;;13.70;99.90;;;;;;4972106;28;20195;-73
2023/01/05 01:17:04;;;;;;;9.40;2.30;;;13.70;99.90;;;;;;4974307;28;20208;-72
2023/01/05 01:19:32;;;;;;;9.80;2.35;;;13.70;99.90;;;;;;4982718;28;20285;-73
2023/01/05 01:21:58;;;;;;;10.90;2.40;;;13.70;99.90;;;;;;4978137;28;20202;-72
2023/01/05 01:24:26;;;;;;;8.68;2.60;;;13.70;99.90;;;;;;4983574;28;20206;-72
2023/01/05 01:26:53;;;;;;;10.68;2.08;;;13.70;99.90;;;;;;4989805;28;20206;-73
2023/01/05 01:29:20;;;;;;;8.73;2.33;;;13.70;99.90;;;;;;4975126;28;20214;-72
2023/01/05 01:31:50;;;;;;;9.48;2.10;;;13.70;99.90;;;;;;4977837;28;20182;-72
2023/01/05 01:34:22;;;;;;;9.95;2.30;;;13.70;99.90;;;;;;4971188;28;20202;-71
2023/01/05 01:36:50;;;;;;;13.13;3.03;;;13.70;99.90;;;;;;4977590;28;20206;-73
2023/01/05 01:39:17;;;;;;;9.77;2.33;;;13.70;99.90;;;;;;4968295;28;20178;-73
2023/01/05 01:41:45;;;;;;;8.65;2.28;;;13.70;99.90;;;;;;4977824;28;20183;-73
2023/01/05 01:44:51;;;;;;;8.07;2.17;;;13.60;99.90;;;;;;4976829;28;20175;-72
2023/01/05 01:47:29;;;;;;;9.20;2.05;;;13.70;99.90;;;;;;4982395;28;20198;-73
2023/01/05 01:49:58;;;;;;;8.63;1.95;;;13.60;99.90;;;;;;4969057;28;20179;-72
2023/01/05 01:52:29;;;;;;;10.85;2.53;;;13.70;99.90;;;;;;4978765;28;20182;-72
2023/01/05 01:54:55;;;;;;;10.00;2.08;;;13.60;99.90;;;;;;4978245;28;20211;-73
2023/01/05 01:57:22;;;;;;;8.85;2.25;;;13.60;99.90;;;;;;4968655;28;20307;-74
2023/01/05 01:59:51;;;;;;;8.57;2.10;;;13.60;99.90;;;;;;4968745;28;20195;-72
2023/01/05 02:02:19;;;;;;;8.32;2.20;;;13.70;99.90;;;;;;4974382;28;20207;-72
2023/01/05 02:04:48;;;;;;;9.63;2.05;;;13.70;99.90;;;;;;4979553;28;20218;-72
2023/01/05 02:07:14;;;;;;;10.25;2.30;;;13.70;99.90;;;;;;4985754;28;20182;-74
2023/01/05 02:09:41;;;;;;;7.50;1.80;;;13.70;99.90;;;;;;4989241;28;20183;-74
2023/01/05 02:12:13;;;;;;;6.68;1.80;;;13.70;99.90;;;;;;4981963;28;20237;-73
2023/01/05 02:14:50;;;;;;;9.88;2.00;;;13.70;99.90;;;;;;4982296;28;20272;-74
2023/01/05 02:17:46;;;;;;;12.32;2.78;;;13.70;99.90;;;;;;4982708;28;20221;-73
2023/01/05 02:20:33;;;;;;;9.20;2.10;;;13.70;99.90;;;;;;4982477;28;20202;-72
2023/01/05 02:23:37;;;;;;;7.15;2.28;;;13.70;99.90;;;;;;4995537;28;20174;-73
2023/01/05 02:26:42;;;;;;;10.02;2.20;;;13.70;99.90;;;;;;4938381;28;20191;-72
2023/01/05 02:29:40;;;;;;;15.93;2.33;;;13.70;99.90;;;;;;4984483;28;20174;-73
2023/01/05 02:32:18;;;;;;;8.60;2.33;;;13.70;99.90;;;;;;4977226;28;20241;-72
2023/01/05 02:34:51;;;;;;;10.70;2.50;;;13.70;99.90;;;;;;4972889;28;20200;-73
2023/01/05 02:37:25;;;;;;;8.70;1.85;;;13.70;99.90;;;;;;4997937;28;20178;-73
2023/01/05 02:40:19;;;;;;;9.63;2.10;;;13.70;99.90;;;;;;4982895;28;20302;-73
2023/01/05 02:42:46;;;;;;;7.45;2.25;;;13.70;99.90;;;;;;4969524;28;20193;-73
2023/01/05 02:45:15;;;;;;;5.03;1.77;;;13.70;99.90;;;;;;4996403;28;20175;-73
2023/01/05 02:47:45;;;;;;;8.05;1.85;;;13.70;99.90;;;;;;4981153;28;20175;-73
2023/01/05 02:50:43;;;;;;;7.47;1.95;;;13.70;99.90;;;;;;4985553;28;20203;-75
2023/01/05 02:53:16;;;;;;;9.48;2.17;;;13.70;99.90;;;;;;4998926;28;20198;-72
2023/01/05 02:55:59;;;;;;;11.15;2.45;;;13.70;99.90;;;;;;4982545;28;20237;-73
2023/01/05 02:58:36;;;;;;;7.18;2.05;;;13.70;99.90;;;;;;4982701;28;20323;-73
2023/01/05 03:01:14;;;;;;;8.75;2.10;;;13.70;99.90;;;;;;4973050;28;20183;-73
2023/01/05 03:04:08;;;;;;;7.95;2.30;;;13.70;99.90;;;;;;4973908;28;20189;-74
2023/01/05 03:06:47;;;;;;;8.65;2.28;;;13.70;99.90;;;;;;4981312;28;20282;-74
2023/01/05 03:09:15;;;;;;;13.00;2.72;;;13.70;99.90;;;;;;4978874;28;20187;-73
2023/01/05 03:14:37;;;;;;;7.38;1.85;;;13.60;99.90;;;;;;5003831;28;20486;-72
2023/01/05 03:17:07;;;;;;;7.00;1.88;;;13.70;99.90;;;;;;4978288;28;20183;-73
2023/01/05 03:19:43;;;;;;;6.68;1.80;;;13.60;99.90;;;;;;4979911;28;20195;-73
2023/01/05 03:36:38;;;;;;;6.72;1.67;;;13.60;99.90;;;;;;4996885;28;20443;-72
2023/01/05 03:39:04;;;;;;;5.95;2.00;;;13.60;99.90;;;;;;4994003;28;20178;-72
2023/01/05 03:41:33;;;;;;;9.05;1.88;;;13.50;99.90;;;;;;4979027;28;20167;-72
2023/01/05 03:43:59;;;;;;;7.90;1.90;;;13.50;99.90;;;;;;4979223;28;20204;-73
2023/01/05 03:46:26;;;;;;;9.52;2.55;;;13.60;99.90;;;;;;4961431;28;20168;-73
2023/01/05 03:48:52;;;;;;;10.32;2.30;;;13.50;99.90;;;;;;4978475;28;20237;-71
2023/01/05 03:51:20;;;;;;;9.18;1.88;;;13.50;99.90;;;;;;4969874;28;20183;-71
2023/01/05 03:53:46;;;;;;;11.15;2.22;;;13.50;99.90;;;;;;4975156;28;20175;-71
2023/01/05 03:56:11;;;;;;;10.15;2.20;;;13.50;99.90;;;;;;4986263;28;20249;-72
2023/01/05 03:58:37;;;;;;;12.88;2.10;;;13.50;99.90;;;;;;4992426;28;20210;-72
2023/01/05 04:01:03;;;;;;;9.32;2.03;;;13.40;99.90;;;;;;4983961;28;20202;-72
2023/01/05 04:03:29;;;;;;;8.70;2.35;;;13.50;99.90;;;;;;4980483;28;20195;-72
2023/01/05 04:05:55;;;;;;;9.75;2.13;;;13.40;99.90;;;;;;4967404;28;20203;-72
2023/01/05 04:08:20;;;;;;;10.80;2.80;;;13.50;99.90;;;;;;4979134;28;20213;-72
2023/01/05 04:10:46;;;;;;;9.02;2.30;;;13.50;99.90;;;;;;4978801;28;20185;-72
2023/01/05 04:13:12;;;;;;;11.38;2.10;;;13.50;99.90;;;;;;4974616;28;20188;-72
2023/01/05 04:15:40;;;;;;;11.60;2.67;;;13.50;99.90;;;;;;4975568;28;20212;-75
2023/01/05 04:18:10;;;;;;;10.63;2.17;;;13.50;99.90;;;;;;4982326;28;20250;-73
2023/01/05 04:20:36;;;;;;;15.73;2.80;;;13.50;99.90;;;;;;4982920;28;20294;-73
2023/01/05 04:23:02;;;;;;;9.02;2.72;;;13.50;99.90;;;;;;4986630;28;20216;-73
2023/01/05 04:25:27;;;;;;;11.27;2.00;;;13.50;99.90;;;;;;4983281;28;20182;-72
2023/01/05 04:27:55;;;;;;;8.23;2.28;;;13.50;99.90;;;;;;4971808;28;20180;-72
2023/01/05 04:30:20;;;;;;;10.57;2.60;;;13.40;99.90;;;;;;4976133;28;20438;-73
2023/01/05 04:32:46;;;;;;;9.15;2.20;;;13.50;99.90;;;;;;4977913;28;20235;-72
2023/01/05 04:35:14;;;;;;;9.82;2.42;;;13.40;99.90;;;;;;4990366;28;20273;-73
2023/01/05 04:37:39;;;;;;;7.78;2.45;;;13.50;99.90;;;;;;4979181;28;20176;-73
2023/01/05 04:40:08;;;;;;;8.05;2.08;;;13.40;99.90;;;;;;4978654;28;20228;-72
2023/01/05 04:42:33;;;;;;;8.32;2.28;;;13.40;99.90;;;;;;4968600;28;20241;-72
2023/01/05 04:45:02;;;;;;;10.15;2.10;;;13.40;99.90;;;;;;4985949;28;20248;-73
2023/01/05 04:47:29;;;;;;;11.13;3.17;;;13.40;99.90;;;;;;4984492;28;20190;-72
2023/01/05 04:49:55;;;;;;;9.10;2.00;;;13.40;99.90;;;;;;4975782;28;20247;-72
2023/01/05 04:52:23;;;;;;;8.32;2.08;;;13.50;99.90;;;;;;4986246;28;20210;-72
2023/01/05 04:54:51;;;;;;;7.85;2.03;;;13.40;99.90;;;;;;4992955;28;20203;-73
2023/01/05 04:57:18;;;;;;;6.60;2.10;;;13.50;99.90;;;;;;4986260;28;20209;-74
2023/01/05 04:59:44;;;;;;;7.85;2.30;;;13.50;99.90;;;;;;4976106;28;20204;-71
2023/01/05 05:02:13;;;;;;;8.57;2.00;;;13.50;99.90;;;;;;4993419;28;20780;-73
2023/01/05 05:04:41;;;;;;;14.85;2.47;;;13.50;99.90;;;;;;4975981;28;20239;-73
2023/01/05 05:07:06;;;;;;;10.50;2.58;;;13.40;99.90;;;;;;4971189;28;20176;-73
2023/01/05 05:09:32;;;;;;;7.40;2.05;;;13.50;99.90;;;;;;4985933;28;20264;-71
2023/01/05 05:11:57;;;;;;;7.68;2.10;;;13.40;99.90;;;;;;4976427;28;20222;-74
2023/01/05 05:14:26;;;;;;;8.65;2.40;;;13.50;99.90;;;;;;4962199;28;20209;-74
2023/01/05 05:16:51;;;;;;;13.45;2.78;;;13.50;99.90;;;;;;4997368;28;20228;-73
2023/01/05 05:19:19;;;;;;;9.25;2.47;;;13.50;99.90;;;;;;4985347;28;20427;-74
2023/01/05 05:22:11;;;;;;;9.35;2.50;;;13.50;99.90;;;;;;4980108;28;20183;-73
2023/01/05 05:24:36;;;;;;;12.40;2.55;;;13.40;99.90;;;;;;4966452;28;20191;-73
2023/01/05 05:27:02;;;;;;;9.75;2.45;;;13.40;99.90;;;;;;4980479;28;20269;-73
2023/01/05 05:29:28;;;;;;;11.02;2.42;;;13.40;99.90;;;;;;4981250;28;20207;-73
2023/01/05 05:31:54;;;;;;;10.65;2.70;;;13.40;99.90;;;;;;4973142;28;20217;-73
2023/01/05 05:34:19;;;;;;;10.50;2.65;;;13.40;99.90;;;;;;4993274;28;20203;-72
2023/01/05 05:36:45;;;;;;;10.02;1.88;;;13.40;99.90;;;;;;4988896;28;20186;-73
2023/01/05 05:39:11;;;;;;;10.32;2.85;;;13.40;99.90;;;;;;4983668;28;20171;-73
2023/01/05 05:41:37;;;;;;;12.13;2.30;;;13.40;99.90;;;;;;4978324;28;20215;-73
2023/01/05 05:44:05;;;;;;;9.75;2.40;;;13.50;99.90;;;;;;4978479;28;20175;-74
2023/01/05 05:46:30;;;;;;;10.20;2.47;;;13.40;99.90;;;;;;4987772;28;20211;-72
2023/01/05 05:48:57;;;;;;;9.35;2.47;;;13.40;99.90;;;;;;4976077;28;20176;-73
2023/01/05 05:51:23;;;;;;;12.38;2.92;;;13.40;99.90;;;;;;4976910;28;20180;-73
2023/01/05 05:53:52;;;;;;;10.57;2.50;;;13.50;99.90;;;;;;4971716;28;20448;-71
2023/01/05 05:56:19;;;;;;;6.47;1.80;;;13.40;99.90;;;;;;4980669;28;20247;-72
2023/01/05 05:58:47;;;;;;;6.68;2.10;;;13.40;99.90;;;;;;4992999;28;20241;-72
2023/01/05 06:01:12;;;;;;;12.50;2.60;;;13.40;99.90;;;;;;4975938;28;20196;-73
2023/01/05 06:03:38;;;;;;;12.25;3.00;;;13.50;99.90;;;;;;4973400;28;20190;-73
2023/01/05 06:06:06;;;;;;;8.63;2.05;;;13.40;99.90;;;;;;4984534;28;20182;-74
2023/01/05 06:08:34;;;;;;;9.13;2.45;;;13.40;99.90;;;;;;4982175;28;20211;-71
2023/01/05 06:11:02;;;;;;;6.30;2.13;;;13.40;99.90;;;;;;4979890;28;20175;-71
2023/01/05 06:13:28;;;;;;;9.63;2.28;;;13.40;99.90;;;;;;4979316;28;20183;-72
2023/01/05 06:15:53;;;;;;;8.15;2.28;;;13.50;99.90;;;;;;4989542;28;20324;-73
2023/01/05 06:18:19;;;;;;;11.43;2.58;;;13.40;99.90;;;;;;4980950;28;20244;-72
2023/01/05 06:20:45;;;;;;;11.07;2.25;;;13.40;99.90;;;;;;4983816;28;20238;-71
2023/01/05 06:23:13;;;;;;;9.20;2.25;;;13.40;99.90;;;;;;4972653;28;20288;-71
2023/01/05 06:25:39;;;;;;;10.43;2.70;;;13.40;99.90;;;;;;4975558;28;20183;-71
2023/01/05 06:28:05;;;;;;;8.98;2.70;;;13.40;99.90;;;;;;4986338;28;20187;-72
2023/01/05 06:30:33;;;;;;;9.60;2.38;;;13.40;99.90;;;;;;4979276;28;20202;-71
2023/01/05 06:32:59;;;;;;;7.00;1.92;;;13.50;99.90;;;;;;4982603;28;20210;-71
2023/01/05 06:35:26;;;;;;;9.68;2.28;;;13.40;99.90;;;;;;4975151;28;20270;-71
2023/01/05 06:37:52;;;;;;;11.30;2.92;;;13.40;99.90;;;;;;4979571;28;20175;-71
2023/01/05 06:40:23;;;;;;;10.85;2.90;;;13.40;99.90;;;;;;4977240;28;20258;-72
2023/01/05 06:42:48;;;;;;;8.57;2.20;;;13.40;99.90;;;;;;4970707;28;20259;-71
2023/01/05 06:45:15;;;;;;;8.20;2.22;;;13.40;99.90;;;;;;4977300;28;20311;-72
2023/01/05 06:47:41;;;;;;;11.48;2.70;;;13.40;99.90;;;;;;4976080;28;20175;-72
2023/01/05 06:50:13;;;;;;;8.50;2.20;;;13.40;99.90;;;;;;4975991;28;20303;-72
2023/01/05 06:52:39;;;;;;;10.43;2.58;;;13.40;99.90;;;;;;4975964;28;20191;-72
2023/01/05 06:55:14;;;;;;;10.90;2.30;;;13.40;99.90;;;;;;4975391;28;20192;-73
2023/01/05 06:57:44;;;;;;;9.98;2.10;;;13.40;99.90;;;;;;4974015;28;20249;-72
2023/01/05 07:00:15;;;;;;;7.45;1.88;;;13.30;99.90;;;;;;4982076;28;20506;-73
2023/01/05 07:02:44;;;;;;;8.63;2.30;;;13.30;99.90;;;;;;4966814;28;20248;-73
2023/01/05 07:05:10;;;;;;;9.93;2.92;;;13.30;99.90;;;;;;4977020;28;20182;-73
2023/01/05 07:07:36;;;;;;;11.60;2.38;;;13.30;99.90;;;;;;4983240;28;20171;-72
2023/01/05 07:11:14;;;;;;;;;;;;;;;;;;;;;
2023/01/05 07:14:31;;;;;;;10.32;2.40;;;13.40;99.90;;;;;;4950066;28;20192;-72
2023/01/05 07:24:05;;;;;;;12.98;2.15;;;13.20;99.90;;;;;;4985836;28;20238;-73
2023/01/05 07:26:36;;;;;;;10.95;2.60;;;13.20;99.90;;;;;;4980302;28;20199;-73
2023/01/05 07:29:01;;;;;;;9.80;2.53;;;13.30;99.90;;;;;;4975159;28;20211;-73
2023/01/05 07:31:31;;;;;;;8.80;2.05;;;13.20;99.90;;;;;;4973518;28;20191;-73
2023/01/05 07:33:59;;;;;;;8.43;2.28;;;13.20;99.90;;;;;;4981294;28;20187;-72
2023/01/05 07:36:27;;;;;;;12.57;2.70;;;13.20;99.90;;;;;;4976771;28;20203;-72
2023/01/05 07:38:57;;;;;;;10.32;2.60;;;13.20;99.90;;;;;;4990114;28;20183;-73
2023/01/05 07:41:25;;;;;;;10.75;2.90;;;13.20;99.90;;;;;;4984155;28;20211;-72
2023/01/05 07:43:51;;;;;;;13.32;2.60;;;13.20;99.90;;;;;;4990856;28;20168;-73
2023/01/05 07:46:19;;;;;;;10.07;3.00;;;13.20;99.90;;;;;;4979036;28;20202;-72
2023/01/05 07:48:45;;;;;;;12.32;2.58;;;13.20;99.90;;;;;;4987236;28;20236;-72
2023/01/05 07:51:10;;;;;;;8.88;3.05;;;13.20;99.90;;;;;;4981564;28;20183;-72
2023/01/05 07:53:37;;;;;;;10.25;2.55;;;13.20;99.90;;;;;;4978680;28;20235;-72
2023/01/05 07:56:04;;;;;;;10.45;2.55;;;13.20;99.90;;;;;;4969105;28;20207;-73
2023/01/05 07:58:31;;;;;;;7.80;2.15;;;13.20;99.90;;;;;;4977374;28;20254;-73
2023/01/05 08:01:01;;;;;;;9.63;2.20;;;13.20;99.90;;;;;;4999578;28;20172;-73
2023/01/05 08:03:29;;;;;;;11.73;2.60;;;13.20;99.90;;;;;;4987697;28;20180;-72
2023/01/05 08:19:54;;;;;;;12.40;2.20;;;13.10;99.90;;;;;;4991119;28;20229;-71
2023/01/05 08:22:20;;;;;;;8.68;1.95;;;13.10;99.90;;;;;;4976028;28;20279;-71
2023/01/05 08:24:45;;;;;;;9.63;2.35;;;13.10;99.90;;;;;;4986149;28;20309;-72
2023/01/05 08:27:16;;;;;;;13.90;2.78;;;13.10;99.90;;;;;;4978934;28;20186;-72
2023/01/05 08:29:41;;;;;;;9.68;2.67;;;13.10;99.90;;;;;;4979904;28;20289;-73
2023/01/05 08:32:07;;;;;;;10.23;2.70;;;13.10;99.90;;;;;;4973376;28;20260;-72
2023/01/05 08:34:35;;;;;;;10.25;2.70;;;13.10;99.90;;;;;;4979423;28;20199;-73
2023/01/05 08:37:06;;;;;;;10.43;2.47;;;13.00;99.90;;;;;;4968894;28;20229;-72
2023/01/05 08:39:31;;;;;;;10.27;2.80;;;12.90;99.90;;;;;;4965795;28;20190;-73
2023/01/05 08:42:07;;;;;;;11.95;2.65;;;13.00;99.90;;;;;;4976220;28;20175;-73
2023/01/05 08:44:33;;;;;;;15.05;3.15;;;13.00;99.90;;;;;;4976058;28;20188;-72
2023/01/05 08:47:01;;;;;;;15.50;3.20;;;13.00;99.90;;;;;;4979202;28;20222;-74
2023/01/05 08:49:29;;;;;;;9.52;2.60;;;13.00;99.90;;;;;;4976603;28;20230;-73
2023/01/05 08:51:55;;;;;;;10.27;2.85;;;13.10;99.90;;;;;;4973290;28;20225;-73
2023/01/05 08:54:20;;;;;;;12.63;2.40;;;13.10;99.90;;;;;;4973549;28;20333;-74
2023/01/05 08:56:49;;;;;;;11.90;3.13;;;13.10;99.90;;;;;;4995016;28;20171;-73
2023/01/05 08:59:15;;;;;;;12.00;2.92;;;13.20;99.90;;;;;;4985701;28;20199;-72
2023/01/05 09:01:43;;;;;;;11.93;2.67;;;13.20;99.90;;;;;;4977794;28;20179;-74
2023/01/05 09:15:13;;;;;;;13.30;2.55;;;13.30;99.90;;;;;;4904442;29;20209;-74
2023/01/05 09:17:41;;;;;;;14.00;2.65;;;13.30;99.90;;;;;;4882609;29;20204;-72
2023/01/05 09:20:12;;;;;;;12.82;2.60;;;13.40;99.90;;;;;;4898192;29;20182;-73
2023/01/05 09:22:37;;;;;;;14.40;3.15;;;13.30;99.90;;;;;;4943582;28;20191;-73
2023/01/05 09:25:06;;;;;;;14.18;3.00;;;13.40;99.90;;;;;;4990433;28;20325;-73
2023/01/05 09:27:40;;;;;;;13.30;3.08;;;13.40;99.90;;;;;;4972136;28;20183;-73
2023/01/05 09:30:06;;;;;;;12.23;3.25;;;13.40;99.90;;;;;;4996207;28;20170;-73
2023/01/05 09:32:32;;;;;;;7.82;2.33;;;13.40;99.90;;;;;;4976733;28;20274;-73
2023/01/05 09:34:58;;;;;;;12.93;2.97;;;13.40;99.90;;;;;;4965061;28;20302;-72
2023/01/05 09:37:23;;;;;;;15.27;3.38;;;13.40;99.90;;;;;;4990970;28;20213;-74
2023/01/05 09:39:51;;;;;;;10.02;2.92;;;13.40;99.90;;;;;;4990073;28;20175;-72
2023/01/05 09:42:36;;;;;;;12.77;2.92;;;13.40;99.90;;;;;;4982775;28;20187;-72
2023/01/05 09:45:04;;;;;;;10.70;2.50;;;13.40;99.90;;;;;;4980192;28;20190;-72
2023/01/05 09:47:45;;;;;;;14.68;3.30;;;13.50;99.90;;;;;;4974677;28;20187;-73
2023/01/05 09:50:27;;;;;;;16.10;3.35;;;13.50;99.90;;;;;;4974515;28;20226;-73
2023/01/05 09:52:58;;;;;;;12.27;3.08;;;13.60;99.90;;;;;;4978595;28;20279;-74
2023/01/05 09:55:30;;;;;;;11.57;2.95;;;13.50;99.90;;;;;;4976343;28;20221;-73
2023/01/05 09:58:22;;;;;;;9.25;2.83;;;13.50;99.90;;;;;;4980614;28;20182;-72
2023/01/05 10:01:07;;;;;;;11.40;2.97;;;13.50;99.90;;;;;;4985831;28;20185;-73
2023/01/05 10:03:41;;;;;;;17.65;3.60;;;13.60;99.90;;;;;;4984997;28;20270;-73
2023/01/05 10:06:14;;;;;;;13.00;3.28;;;13.60;99.90;;;;;;4981516;28;20289;-72
2023/01/05 10:08:46;;;;;;;18.40;3.22;;;13.60;99.90;;;;;;4972039;28;20199;-72
2023/01/05 10:25:09;;;;;;;10.98;2.40;;;13.70;99.90;;;;;;4993563;28;20214;-74
2023/01/05 10:28:37;;;;;;;9.75;2.47;;;13.80;99.90;;;;;;4976796;28;20194;-73
2023/01/05 10:31:14;;;;;;;14.23;3.22;;;13.90;99.90;;;;;;4956185;28;20187;-73
2023/01/05 10:33:40;;;;;;;12.20;2.80;;;13.90;99.90;;;;;;4982962;28;20189;-73
2023/01/05 10:36:25;;;;;;;8.95;2.38;;;13.90;99.90;;;;;;4980651;28;20199;-73
2023/01/05 10:39:10;;;;;;;10.48;3.08;;;13.90;99.90;;;;;;4982379;28;20199;-73
2023/01/05 10:42:15;;;;;;;9.90;2.55;;;13.90;99.90;;;;;;4985564;28;20242;-72
2023/01/05 10:44:55;;;;;;;11.35;2.80;;;14.00;99.90;;;;;;4971805;28;20199;-72
2023/01/05 10:47:24;;;;;;;15.70;3.50;;;14.00;99.90;;;;;;4979346;28;20217;-72
2023/01/05 10:49:50;;;;;;;11.52;2.88;;;14.00;99.90;;;;;;5010752;28;20191;-72
2023/01/05 10:52:19;;;;;;;15.57;3.60;;;14.00;99.90;;;;;;4985380;28;20175;-73
2023/01/05 10:54:57;;;;;;;14.15;3.22;;;14.00;99.90;;;;;;4987750;28;20234;-73
2023/01/05 10:57:35;;;;;;;13.45;3.10;;;14.00;99.90;;;;;;4976707;28;20282;-73
2023/01/05 11:00:06;;;;;;;15.23;3.35;;;14.00;99.90;;;;;;4972220;28;20448;-73
2023/01/05 11:02:35;;;;;;;9.85;3.10;;;14.10;99.90;;;;;;4980750;28;20210;-72
2023/01/05 11:05:05;;;;;;;9.10;2.80;;;14.00;99.90;;;;;;4992819;28;20179;-71
2023/01/05 11:07:45;;;;;;;14.93;3.30;;;14.00;99.90;;;;;;4986409;28;20286;-73
2023/01/05 11:10:44;;;;;;;9.02;3.20;;;14.10;99.90;;;;;;4984428;28;20187;-74
2023/01/05 11:13:24;;;;;;;15.77;3.28;;;14.10;99.90;;;;;;4979923;28;20198;-74
2023/01/05 11:16:32;;;;;;;17.15;3.35;;;14.10;99.90;;;;;;4989550;28;20210;-73
2023/01/05 11:30:24;;;;;;;;;;;;;;;;;;;;;
2023/01/05 11:32:51;;;;;;;9.98;2.85;;;14.70;99.90;;;;;;4953387;28;20278;-72
2023/01/05 11:35:18;;;;;;;12.32;3.17;;;14.90;99.90;;;;;;4941868;28;20215;-74
2023/01/05 11:37:48;;;;;;;12.18;3.10;;;15.00;99.90;;;;;;4942078;28;20184;-74
2023/01/05 11:40:45;;;;;;;9.07;2.55;;;15.20;99.90;;;;;;4976318;28;20167;-75
2023/01/05 11:43:18;;;;;;;12.77;2.95;;;15.30;99.90;;;;;;4978403;28;20186;-73
2023/01/05 11:46:16;;;;;;;10.82;3.08;;;15.40;99.90;;;;;;4978089;28;20190;-72
2023/01/05 11:48:54;;;;;;;11.10;3.03;;;15.30;99.90;;;;;;4982966;28;20194;-71
2023/01/05 11:51:41;;;;;;;10.70;2.65;;;15.30;99.90;;;;;;4977847;28;20301;-72
2023/01/05 11:54:31;;;;;;;11.02;2.85;;;15.20;99.90;;;;;;4971016;28;20192;-76
2023/01/05 11:57:26;;;;;;;10.10;2.63;;;15.10;99.90;;;;;;4970117;28;20182;-75
2023/01/05 11:59:54;;;;;;;9.77;2.70;;;14.90;99.90;;;;;;4984769;28;20175;-76
2023/01/05 12:02:48;;;;;;;10.85;2.50;;;14.80;99.90;;;;;;4975047;28;20214;-76
2023/01/05 12:05:27;;;;;;;8.85;2.60;;;14.70;99.90;;;;;;4971926;28;20175;-79
2023/01/05 12:08:14;;;;;;;8.48;2.47;;;14.60;99.90;;;;;;4980694;28;20180;-76
2023/01/05 12:10:58;;;;;;;7.75;2.10;;;14.50;99.90;;;;;;4981748;28;20178;-75
2023/01/05 12:13:57;;;;;;;9.85;2.00;;;14.50;99.90;;;;;;4979147;28;20292;-75
2023/01/05 12:16:57;;;;;;;12.85;2.88;;;14.50;99.90;;;;;;4976173;28;20207;-73
2023/01/05 12:19:56;;;;;;;9.75;2.30;;;14.50;99.90;;;;;;4978226;28;20190;-77
2023/01/05 12:22:56;;;;;;;10.48;2.38;;;14.50;99.90;;;;;;4975850;28;20188;-75
2023/01/05 12:25:56;;;;;;;10.45;2.55;;;14.60;99.90;;;;;;4990643;28;20178;-74
2023/01/05 12:28:44;;;;;;;10.93;2.35;;;14.90;99.90;;;;;;4975263;28;20191;-77
2023/01/05 12:31:25;;;;;;;13.35;2.95;;;15.30;99.90;;;;;;4985786;28;20182;-73
2023/01/05 12:34:05;;;;;;;8.80;2.50;;;15.70;99.90;;;;;;4976885;28;20184;-74
2023/01/05 12:36:58;;;;;;;8.57;2.70;;;15.90;99.90;;;;;;4985251;28;20202;-75
2023/01/05 12:39:57;;;;;;;13.65;3.30;;;16.10;99.90;;;;;;4982985;28;20188;-73
2023/01/05 12:42:26;;;;;;;11.18;2.58;;;16.10;99.90;;;;;;4992745;28;20457;-72
2023/01/05 12:44:57;;;;;;;13.20;2.35;;;16.20;99.90;;;;;;4974711;28;20202;-75
2023/01/05 12:47:38;;;;;;;8.40;2.40;;;16.20;99.90;;;;;;4994052;28;20206;-74
2023/01/05 12:50:26;;;;;;;9.85;2.60;;;16.10;99.90;;;;;;4976130;28;20229;-74
2023/01/05 12:53:10;;;;;;;8.45;2.55;;;16.00;99.90;;;;;;4986944;28;20195;-76
2023/01/05 12:56:21;;;;;;;8.98;1.90;;;15.90;99.90;;;;;;4976157;28;20215;-74
2023/01/05 12:59:04;;;;;;;8.00;2.22;;;15.70;99.90;;;;;;4980833;28;20183;-75
2023/01/05 13:02:13;;;;;;;7.85;2.38;;;15.60;99.90;;;;;;4974959;28;20206;-75
2023/01/05 13:04:46;;;;;;;7.15;2.15;;;15.40;99.90;;;;;;4969951;28;20290;-74
2023/01/05 13:07:20;;;;;;;11.90;2.67;;;15.40;99.90;;;;;;4987376;28;20183;-76
2023/01/05 13:09:56;;;;;;;14.77;2.88;;;15.30;99.90;;;;;;4976624;28;20270;-76
2023/01/05 13:12:23;;;;;;;9.60;2.03;;;15.20;99.90;;;;;;4976956;28;20190;-73
2023/01/05 13:15:08;;;;;;;10.10;2.28;;;15.10;99.90;;;;;;4987369;28;20281;-74
2023/01/05 13:45:08;;;;;;;10.93;2.50;;;14.90;99.90;;;;;;4956916;28;20274;-73
2023/01/05 13:48:13;;;;;;;6.80;1.95;;;14.80;99.90;;;;;;4945624;29;20232;-73
2023/01/05 13:51:08;;;;;;;10.85;2.80;;;14.80;99.90;;;;;;4955267;28;20200;-74
2023/01/05 13:53:40;;;;;;;9.13;2.83;;;14.80;99.90;;;;;;4975008;28;20183;-73
2023/01/05 13:56:30;;;;;;;9.45;2.63;;;14.70;99.90;;;;;;4972683;28;20203;-73
2023/01/05 13:59:25;;;;;;;12.75;2.78;;;14.70;99.90;;;;;;4977558;28;20182;-74
2023/01/05 14:01:52;;;;;;;8.73;2.53;;;14.60;99.90;;;;;;4970537;28;20192;-80
2023/01/05 14:04:28;;;;;;;9.23;2.60;;;14.60;99.90;;;;;;4976642;28;20186;-79
2023/01/05 14:06:58;;;;;;;10.48;2.47;;;14.50;99.90;;;;;;4977883;28;20261;-81
2023/01/05 14:09:27;;;;;;;8.73;2.25;;;14.50;99.90;;;;;;4977829;28;20230;-74
2023/01/05 14:12:08;;;;;;;9.63;2.60;;;14.50;99.90;;;;;;4989224;28;20172;-73
2023/01/05 14:14:56;;;;;;;8.70;2.42;;;14.50;99.90;;;;;;4989273;28;20207;-75
2023/01/05 14:17:49;;;;;;;7.80;2.10;;;14.50;99.90;;;;;;4973260;28;20276;-75
2023/01/05 14:20:35;;;;;;;9.13;2.28;;;14.50;99.90;;;;;;4987158;28;20227;-75
2023/01/05 14:23:24;;;;;;;7.57;2.20;;;14.40;99.90;;;;;;4973949;28;20176;-73
2023/01/05 14:26:08;;;;;;;5.85;2.00;;;14.40;99.90;;;;;;4948653;28;20183;-73
2023/01/05 14:28:47;;;;;;;15.82;2.65;;;14.40;99.90;;;;;;4978333;28;20181;-73
2023/01/05 14:31:13;;;;;;;8.02;2.47;;;14.40;99.90;;;;;;4977994;28;20249;-73
2023/01/05 14:33:57;;;;;;;8.95;2.90;;;14.40;99.90;;;;;;4976709;28;20203;-73
2023/01/05 14:36:43;;;;;;;10.30;2.63;;;14.40;99.90;;;;;;4970515;28;20234;-74
2023/01/05 14:39:18;;;;;;;8.00;2.25;;;14.40;99.90;;;;;;4980548;28;20218;-74
2023/01/05 14:42:01;;;;;;;7.65;2.17;;;14.40;99.90;;;;;;4977041;28;20167;-74
2023/01/05 14:44:56;;;;;;;10.02;2.63;;;14.40;99.90;;;;;;4973130;28;20179;-73
2023/01/05 14:47:44;;;;;;;9.73;1.98;;;14.40;99.90;;;;;;4976882;28;20191;-73
2023/01/05 14:50:27;;;;;;;7.93;2.28;;;14.40;99.90;;;;;;4969323;28;20182;-73
2023/01/05 14:52:53;;;;;;;10.63;2.75;;;14.30;99.90;;;;;;4974836;28;20199;-73
2023/01/05 14:55:33;;;;;;;9.23;2.42;;;14.30;99.90;;;;;;4973602;28;20204;-73
2023/01/05 14:58:03;;;;;;;9.85;2.30;;;14.30;99.90;;;;;;4981010;28;20224;-73
2023/01/05 15:00:37;;;;;;;8.55;2.17;;;14.30;99.90;;;;;;4981396;28;20192;-73
2023/01/05 15:03:33;;;;;;;9.40;2.42;;;14.30;99.90;;;;;;4979879;28;20439;-75
2023/01/05 15:06:17;;;;;;;11.82;2.90;;;14.30;99.90;;;;;;4975588;28;20315;-72
2023/01/05 15:08:58;;;;;;;7.53;2.53;;;14.20;99.90;;;;;;4963558;28;20183;-73
2023/01/05 15:11:59;;;;;;;8.80;2.70;;;14.20;99.90;;;;;;4966859;28;20466;-73
2023/01/05 15:15:06;;;;;;;11.27;2.78;;;14.20;99.90;;;;;;4943954;28;20196;-73